Port Townsend, Washington
Current Conditions -  °F | °C
As of 8:14 AM on Wednesday 26 Nov 2014 (Local Time) from KNUW Reporting Station
Overcast Overcast  
Wind Chill: 55°   Ceiling: 800
Heat Index: 55°   Visibility: 8mi
Dew Point: 52°   Wind: 5mph
Humidity: 89%   Direction: 130°SE
Pressure: 30.09"   Gusts: NA
Location:  48.12°N, 122.76°W
Report Text: KNUW 261614Z 13004KT 8SM BKN008 BKN014 OVC140 13/11 A3009 RMK AO2 T01280111 $
Loading
Personal Weather Stations






























Interactive Weather Map New forecast layout! Learn more

10-Day Weather Forecast

Advertisements
Track Severe Weather on mobile